Jennifer — WDF6480 — position and weather

sailwx.info

Track history (hours):
 
Tides and Currents Weather Stations Pressure Air Temp Water Temp Dewpoint Dewpoint Depression Visibility Wind Speed Wind Dir Waves Ship Positions

Jennifer

Owner: John W. Stone Oil Distributor, L.L.C., Gretna, LA. More information available from US FCC via Universal Licensing System and Coast Guard Vessel Documentation Center.

Last reported at 2016-Dec-08 20:31 UTC. Time now 2016-Dec-09 07:52 UTC.
Position N 29°55' W 090°04'.

Length 17 m; draft 3 m.

Type: Tug. MMSI: 367474690.

Date/timePositionNaut miles runAvg speedWind from/ knotsBaromVisibWave heightAir tempDewpointWater temp
2016-Dec-08 20:31N 29°55' W 090°04'0 0.0
2016-Dec-08 19:29N 29°55' W 090°04'0 0.0
2016-Dec-08 18:33N 29°55' W 090°04'3 0.3
2016-Dec-08 09:24N 29°54' W 090°07'3 0.2
2016-Dec-07 13:33N 29°55' W 090°04'92 2.1
2016-Dec-05 18:27N 29°49' W 091°49'2 2.6
2016-Dec-05 17:30N 29°51' W 091°51'6 5.8
2016-Dec-05 16:33N 29°50' W 091°57'6 5.9
2016-Dec-05 15:33N 29°48' W 092°04'5 5.4
2016-Dec-05 14:33N 29°47' W 092°10'1 1.2
2016-Dec-05 13:33N 29°47' W 092°11'0 0.0
2016-Dec-05 12:33N 29°47' W 092°11'0 0.0
2016-Dec-05 11:33N 29°47' W 092°11'0 0.5
2016-Dec-05 10:33N 29°47' W 092°12'2 1.9
2016-Dec-05 09:33N 29°48' W 092°14'5 5.0
2016-Dec-05 08:33N 29°50' W 092°18'5 4.8
2016-Dec-05 07:33N 29°53' W 092°23'42 3.5
2016-Dec-04 19:33N 29°58' W 093°11'5 5.0
2016-Dec-04 18:33N 30°02' W 093°14'4 4.2
2016-Dec-04 17:33N 30°05' W 093°17'2 2.5
2016-Dec-04 16:33N 30°04' W 093°20'6 5.4
2016-Dec-04 15:28N 29°58' W 093°20'5 0.1
2016-Dec-03 02:34N 29°53' W 093°21'5 5.4
2016-Dec-03 01:34N 29°58' W 093°20'6 6.1
2016-Dec-03 00:34N 30°04' W 093°20'3 2.7
2016-Dec-02 23:33N 30°05' W 093°17'5 4.7
2016-Dec-02 22:34N 30°01' W 093°14'5 5.2
2016-Dec-02 21:33N 29°57' W 093°10'35 4.9
2016-Dec-02 14:30N 29°54' W 092°30'5 5.3
2016-Dec-02 13:34N 29°53' W 092°25'5 4.8
2016-Dec-02 12:34N 29°51' W 092°20'5 5.0
2016-Dec-02 11:34N 29°48' W 092°15'2 2.5
2016-Dec-02 10:33N 29°47' W 092°12'1 1.3
2016-Dec-02 09:34N 29°47' W 092°11'0 0.0
2016-Dec-02 08:34N 29°47' W 092°11'0 0.0
2016-Dec-02 07:30N 29°47' W 092°11'0 0.0
2016-Dec-02 06:34N 29°47' W 092°11'0 0.0
2016-Dec-02 05:34N 29°47' W 092°11'0 0.0
2016-Dec-02 04:34N 29°47' W 092°11'2 2.4
2016-Dec-02 03:34N 29°47' W 092°08'5 4.8
2016-Dec-02 02:34N 29°49' W 092°03'5 5.1
2016-Dec-02 01:33N 29°50' W 091°57'99 2.5
2016-Nov-30 09:25N 29°55' W 090°04'0 0.0
2016-Nov-29 19:24N 29°55' W 090°04'  
Track history (hours):
 
Tides and Currents Weather Stations Pressure Air Temp Water Temp Dewpoint Dewpoint Depression Visibility Wind Speed Wind Dir Waves Ship Positions

Jennifer

Owner: John W. Stone Oil Distributor, L.L.C., Gretna, LA. More information available from US FCC via Universal Licensing System and Coast Guard Vessel Documentation Center.

Last reported at 2016-Dec-08 20:31 UTC. Time now 2016-Dec-09 07:52 UTC.
Position N 29°55' W 090°04'.

Length 17 m; draft 3 m.

Type: Tug. MMSI: 367474690.

Date/timePositionNaut miles runAvg speedWind from/ knotsBaromVisibWave heightAir tempDewpointWater temp
2016-Dec-08 20:31N 29°55' W 090°04'0 0.0
2016-Dec-08 19:29N 29°55' W 090°04'0 0.0
2016-Dec-08 18:33N 29°55' W 090°04'3 0.3
2016-Dec-08 09:24N 29°54' W 090°07'3 0.2
2016-Dec-07 13:33N 29°55' W 090°04'92 2.1
2016-Dec-05 18:27N 29°49' W 091°49'2 2.6
2016-Dec-05 17:30N 29°51' W 091°51'6 5.8
2016-Dec-05 16:33N 29°50' W 091°57'6 5.9
2016-Dec-05 15:33N 29°48' W 092°04'5 5.4
2016-Dec-05 14:33N 29°47' W 092°10'1 1.2
2016-Dec-05 13:33N 29°47' W 092°11'0 0.0
2016-Dec-05 12:33N 29°47' W 092°11'0 0.0
2016-Dec-05 11:33N 29°47' W 092°11'0 0.5
2016-Dec-05 10:33N 29°47' W 092°12'2 1.9
2016-Dec-05 09:33N 29°48' W 092°14'5 5.0
2016-Dec-05 08:33N 29°50' W 092°18'5 4.8
2016-Dec-05 07:33N 29°53' W 092°23'42 3.5
2016-Dec-04 19:33N 29°58' W 093°11'5 5.0
2016-Dec-04 18:33N 30°02' W 093°14'4 4.2
2016-Dec-04 17:33N 30°05' W 093°17'2 2.5
2016-Dec-04 16:33N 30°04' W 093°20'6 5.4
2016-Dec-04 15:28N 29°58' W 093°20'5 0.1
2016-Dec-03 02:34N 29°53' W 093°21'5 5.4
2016-Dec-03 01:34N 29°58' W 093°20'6 6.1
2016-Dec-03 00:34N 30°04' W 093°20'3 2.7
2016-Dec-02 23:33N 30°05' W 093°17'5 4.7
2016-Dec-02 22:34N 30°01' W 093°14'5 5.2
2016-Dec-02 21:33N 29°57' W 093°10'35 4.9
2016-Dec-02 14:30N 29°54' W 092°30'5 5.3
2016-Dec-02 13:34N 29°53' W 092°25'5 4.8
2016-Dec-02 12:34N 29°51' W 092°20'5 5.0
2016-Dec-02 11:34N 29°48' W 092°15'2 2.5
2016-Dec-02 10:33N 29°47' W 092°12'1 1.3
2016-Dec-02 09:34N 29°47' W 092°11'0 0.0
2016-Dec-02 08:34N 29°47' W 092°11'0 0.0
2016-Dec-02 07:30N 29°47' W 092°11'0 0.0
2016-Dec-02 06:34N 29°47' W 092°11'0 0.0
2016-Dec-02 05:34N 29°47' W 092°11'0 0.0
2016-Dec-02 04:34N 29°47' W 092°11'2 2.4
2016-Dec-02 03:34N 29°47' W 092°08'5 4.8
2016-Dec-02 02:34N 29°49' W 092°03'5 5.1
2016-Dec-02 01:33N 29°50' W 091°57'99 2.5
2016-Nov-30 09:25N 29°55' W 090°04'0 0.0
2016-Nov-29 19:24N 29°55' W 090°04'  

Dump ship's entire track history